Time;durP1;ratioP1;P1;durP2;ratioP2;P2;SDS_P1;SDS_P2;PMS_P1;PMS_P2;Temp;Humidity;BMP_temperature;BMP_pressure;BME280_temperature;BME280_humidity;BME280_pressure;Samples;Min_cycle;Max_cycle;Signal;HPM_P1;HPM_P2
2023/07/08 00:00:09;;;;;;;8.57;4.95;;;;;;;16.42;51.20;96284.41;2114547;28;20054;-57
2023/07/08 00:01:13;;;;;;;9.45;5.80;;;;;;;16.30;50.83;96272.97;2115196;28;20043;-57
2023/07/08 00:02:15;;;;;;;7.07;4.97;;;;;;;16.37;51.10;96286.47;2114129;28;20058;-58
2023/07/08 00:03:16;;;;;;;9.43;5.25;;;;;;;16.35;50.89;96288.34;2115251;28;20058;-58
2023/07/08 00:04:17;;;;;;;10.20;5.95;;;;;;;16.32;51.72;96283.31;2114391;28;20467;-57
2023/07/08 00:05:21;;;;;;;9.82;5.68;;;;;;;16.25;52.95;96277.66;2115017;28;20048;-58
2023/07/08 00:06:27;;;;;;;7.75;5.20;;;;;;;16.24;54.13;96275.94;2114571;28;20047;-57
2023/07/08 00:07:28;;;;;;;8.30;4.90;;;;;;;16.29;54.82;96283.53;2105060;28;20044;-58
2023/07/08 00:08:29;;;;;;;8.48;5.95;;;;;;;16.19;54.67;96270.16;2105086;28;20052;-59
2023/07/08 00:09:30;;;;;;;8.82;5.70;;;;;;;16.25;55.06;96282.91;2114296;28;20399;-57
2023/07/08 00:10:31;;;;;;;9.73;5.18;;;;;;;16.23;55.54;96281.31;2114935;28;20043;-58
2023/07/08 00:11:32;;;;;;;10.50;5.57;;;;;;;16.24;56.16;96289.06;2114964;28;20047;-59
2023/07/08 00:12:33;;;;;;;9.00;5.25;;;;;;;16.21;55.46;96286.63;2115286;28;20516;-58
2023/07/08 00:13:35;;;;;;;12.02;5.70;;;;;;;16.21;55.60;96277.94;2115276;28;20054;-58
2023/07/08 00:14:36;;;;;;;9.15;5.68;;;;;;;16.20;55.91;96284.09;2114128;28;20047;-59
2023/07/08 00:15:37;;;;;;;9.85;5.38;;;;;;;16.21;56.13;96280.56;2115080;28;20048;-57
2023/07/08 00:16:38;;;;;;;9.48;6.03;;;;;;;16.10;56.93;96266.38;2105849;28;20534;-59
2023/07/08 00:17:40;;;;;;;8.82;5.85;;;;;;;16.15;56.48;96278.34;2106054;28;20040;-58
2023/07/08 00:18:41;;;;;;;8.57;5.60;;;;;;;16.15;57.72;96273.94;2114336;28;20055;-59
2023/07/08 00:19:42;;;;;;;9.55;5.72;;;;;;;16.16;58.08;96280.03;2114484;28;20047;-57
2023/07/08 00:20:49;;;;;;;8.15;5.10;;;;;;;16.13;58.05;96267.97;2113985;28;20059;-57
2023/07/08 00:21:51;;;;;;;8.70;5.53;;;;;;;16.08;57.92;96270.03;2114289;28;20047;-57
2023/07/08 00:22:52;;;;;;;8.27;5.50;;;;;;;16.14;57.85;96274.88;2114107;28;20403;-57
2023/07/08 00:23:55;;;;;;;10.23;5.35;;;;;;;16.14;58.16;96272.25;2114849;28;20044;-56
2023/07/08 00:24:56;;;;;;;9.10;5.30;;;;;;;16.15;57.94;96270.50;2114971;28;20063;-58
2023/07/08 00:25:57;;;;;;;9.40;5.55;;;;;;;16.14;58.76;96268.78;2115001;28;20040;-57
2023/07/08 00:26:58;;;;;;;9.82;5.72;;;;;;;16.13;58.40;96275.00;2115013;28;20039;-57
2023/07/08 00:27:59;;;;;;;9.57;5.25;;;;;;;16.12;57.99;96271.53;2114382;28;20409;-59
2023/07/08 00:29:00;;;;;;;8.50;5.72;;;;;;;16.10;58.92;96271.63;2114405;28;20058;-58
2023/07/08 00:30:10;;;;;;;8.48;5.22;;;;;;;16.08;58.37;96275.28;2114933;28;20137;-58
2023/07/08 00:31:11;;;;;;;10.07;5.90;;;;;;;16.09;58.50;96271.72;2097791;28;20049;-57
2023/07/08 00:32:14;;;;;;;9.52;5.53;;;;;;;16.07;58.64;96268.38;2090353;28;20048;-57
2023/07/08 00:33:16;;;;;;;8.20;5.38;;;;;;;16.07;59.24;96271.00;2105060;28;20511;-57
2023/07/08 00:34:17;;;;;;;8.27;5.18;;;;;;;16.07;59.20;96263.97;2114391;28;20060;-58
2023/07/08 00:35:33;;;;;;;10.02;5.82;;;;;;;15.99;59.27;96250.53;2104809;28;20048;-59
2023/07/08 00:36:34;;;;;;;9.60;5.47;;;;;;;15.98;59.07;96254.06;2108058;28;20044;-59
2023/07/08 00:37:36;;;;;;;11.10;6.10;;;;;;;15.99;59.30;96249.69;2105375;28;20044;-59
2023/07/08 00:38:37;;;;;;;8.55;5.72;;;;;;;16.05;59.73;96260.59;2104862;28;20048;-58
2023/07/08 00:39:38;;;;;;;10.13;5.63;;;;;;;15.96;59.69;96244.63;2115112;28;20051;-59
2023/07/08 00:40:51;;;;;;;9.77;5.28;;;;;;;16.05;59.51;96259.75;2105878;28;20048;-59
2023/07/08 00:41:54;;;;;;;8.55;5.80;;;;;;;16.02;60.17;96257.34;2096537;28;20055;-57
2023/07/08 00:42:55;;;;;;;9.00;6.07;;;;;;;15.93;59.99;96239.59;2097448;28;20045;-59
2023/07/08 00:43:57;;;;;;;8.75;5.13;;;;;;;16.01;60.02;96264.38;2089365;28;20424;-59
2023/07/08 00:44:58;;;;;;;7.55;5.22;;;;;;;16.01;60.02;96258.25;2089227;28;20045;-58
2023/07/08 00:46:26;;;;;;;9.07;5.35;;;;;;;16.01;61.11;96258.25;2097055;28;20044;-59
2023/07/08 00:47:27;;;;;;;10.75;5.50;;;;;;;15.98;61.01;96263.72;2110103;28;20051;-58
2023/07/08 00:48:30;;;;;;;15.27;5.70;;;;;;;15.95;60.87;96259.50;2105263;28;20052;-58
2023/07/08 00:49:40;;;;;;;9.70;6.03;;;;;;;15.92;60.86;96257.09;2105006;28;20059;-58
2023/07/08 00:50:42;;;;;;;8.80;5.43;;;;;;;15.91;61.06;96263.28;2097609;28;20040;-58
2023/07/08 00:51:43;;;;;;;8.43;5.57;;;;;;;15.89;61.52;96265.16;2088563;28;20115;-58
2023/07/08 00:52:45;;;;;;;8.88;5.85;;;;;;;15.78;60.99;96241.44;2105653;28;20479;-58
2023/07/08 00:53:46;;;;;;;8.73;5.70;;;;;;;15.77;61.44;96244.97;2104763;28;20051;-58
2023/07/08 00:54:51;;;;;;;8.82;5.70;;;;;;;15.84;61.81;96265.44;2105191;28;20439;-58
2023/07/08 00:56:07;;;;;;;8.30;5.47;;;;;;;15.80;62.06;96255.28;2114035;28;20475;-58
2023/07/08 00:57:10;;;;;;;8.50;5.40;;;;;;;15.79;61.57;96261.44;2105873;28;20044;-58
2023/07/08 00:58:11;;;;;;;10.15;5.85;;;;;;;15.77;61.57;96263.28;2105629;28;20407;-58
2023/07/08 00:59:33;;;;;;;9.57;5.40;;;;;;;15.74;60.73;96260.88;2105862;28;20052;-58
2023/07/08 01:00:35;;;;;;;8.73;5.20;;;;;;;15.72;60.63;96258.38;2108538;28;20048;-58
2023/07/08 01:01:37;;;;;;;9.50;5.93;;;;;;;15.69;60.84;96260.31;2114769;28;20475;-58
2023/07/08 01:02:43;;;;;;;7.80;5.00;;;;;;;15.63;62.10;96257.13;2096497;28;20055;-58
2023/07/08 01:03:55;;;;;;;8.65;5.65;;;;;;;15.59;62.54;96271.34;2090285;28;20053;-58
2023/07/08 01:05:04;;;;;;;12.00;5.95;;;;;;;15.59;63.57;96267.91;2091249;28;20463;-58
2023/07/08 01:06:06;;;;;;;10.55;5.88;;;;;;;15.53;63.18;96263.91;2099571;28;20055;-58
2023/07/08 01:07:07;;;;;;;8.93;5.03;;;;;;;15.51;63.77;96260.53;2105619;28;20460;-58
2023/07/08 01:08:09;;;;;;;12.40;5.53;;;;;;;15.40;63.68;96252.53;2081392;28;20064;-58
2023/07/08 01:09:11;;;;;;;11.82;5.38;;;;;;;15.46;64.13;96267.81;2082830;28;20049;-58
2023/07/08 01:10:14;;;;;;;10.48;5.78;;;;;;;15.44;63.89;96272.31;2098985;28;20036;-57
2023/07/08 01:11:15;;;;;;;10.68;5.68;;;;;;;15.41;64.04;96267.28;2107731;28;20047;-58
2023/07/08 01:12:19;;;;;;;9.15;5.70;;;;;;;15.38;64.46;96268.28;2107383;28;20076;-58
2023/07/08 01:13:20;;;;;;;10.88;5.63;;;;;;;15.33;63.98;96267.75;2107611;28;20040;-57
2023/07/08 01:14:22;;;;;;;8.77;5.43;;;;;;;15.24;62.65;96254.41;2097920;28;20056;-58
2023/07/08 01:15:24;;;;;;;8.50;5.40;;;;;;;15.30;61.90;96264.47;2090781;28;20044;-58
2023/07/08 01:16:25;;;;;;;9.40;4.97;;;;;;;15.28;62.55;96269.78;2098135;28;20044;-57
2023/07/08 01:17:32;;;;;;;8.57;5.47;;;;;;;15.28;62.84;96269.78;2106941;28;20484;-58
2023/07/08 01:18:33;;;;;;;9.63;5.32;;;;;;;15.26;62.83;96265.59;2106684;28;20464;-57
2023/07/08 01:19:35;;;;;;;7.35;4.88;;;;;;;15.24;62.91;96272.72;2107221;28;20040;-57
2023/07/08 01:20:37;;;;;;;9.90;5.28;;;;;;;15.25;63.34;96274.38;2107296;28;20392;-59
2023/07/08 01:21:41;;;;;;;7.40;4.97;;;;;;;15.24;63.20;96270.09;2106699;28;20059;-57
2023/07/08 01:22:43;;;;;;;10.07;5.28;;;;;;;15.21;63.36;96279.81;2107724;28;20433;-59
2023/07/08 01:23:44;;;;;;;7.97;4.85;;;;;;;15.19;63.22;96273.00;2090366;28;20057;-57
2023/07/08 01:24:45;;;;;;;7.80;5.18;;;;;;;15.07;63.77;96261.47;2082496;28;20046;-57
2023/07/08 01:25:46;;;;;;;10.05;5.82;;;;;;;15.13;63.89;96274.22;2106848;28;20059;-57
2023/07/08 01:26:47;;;;;;;11.40;5.47;;;;;;;15.10;64.19;96265.69;2116639;28;20047;-58
2023/07/08 01:27:51;;;;;;;9.48;6.05;;;;;;;15.02;64.71;96263.53;2099171;28;20414;-57
2023/07/08 01:28:53;;;;;;;8.60;5.72;;;;;;;15.05;64.17;96272.97;2083086;28;20053;-57
2023/07/08 01:29:55;;;;;;;10.38;5.97;;;;;;;14.95;64.21;96257.84;2082013;28;20053;-57
2023/07/08 01:30:56;;;;;;;8.35;5.68;;;;;;;15.05;64.28;96273.84;2082632;28;20516;-58
2023/07/08 01:31:57;;;;;;;9.93;6.10;;;;;;;14.95;64.92;96257.84;2081993;28;20049;-58
2023/07/08 01:33:01;;;;;;;12.85;6.13;;;;;;;15.02;64.68;96271.38;2090237;28;20557;-59
2023/07/08 01:34:02;;;;;;;8.88;5.90;;;;;;;14.95;65.24;96263.09;2107174;28;20040;-58
2023/07/08 01:35:04;;;;;;;12.10;6.30;;;;;;;14.89;65.55;96265.22;2090761;28;20056;-58
2023/07/08 01:36:05;;;;;;;9.73;6.30;;;;;;;14.95;65.77;96277.94;2090438;28;20052;-58
2023/07/08 01:37:06;;;;;;;9.95;6.10;;;;;;;14.94;66.09;96276.22;2107288;28;20047;-58
2023/07/08 01:38:09;;;;;;;10.25;6.57;;;;;;;14.90;66.73;96272.97;2098570;28;20059;-57
2023/07/08 01:39:12;;;;;;;10.10;6.07;;;;;;;14.91;67.16;96271.19;2082629;28;20041;-59
2023/07/08 01:40:19;;;;;;;8.52;5.90;;;;;;;14.88;66.83;96269.59;2083034;28;20501;-57
2023/07/08 01:41:20;;;;;;;9.43;6.15;;;;;;;14.85;66.72;96263.72;2100013;28;20071;-58
2023/07/08 01:42:21;;;;;;;11.70;6.47;;;;;;;14.81;67.29;96265.69;2114639;28;20062;-57
2023/07/08 01:43:22;;;;;;;11.30;7.10;;;;;;;14.80;67.58;96274.44;2115584;28;20067;-57
2023/07/08 01:44:23;;;;;;;10.95;6.85;;;;;;;14.78;67.31;96279.78;2106449;28;20059;-58
2023/07/08 01:45:28;;;;;;;11.82;6.28;;;;;;;14.67;66.84;96256.03;2098845;28;20590;-57
2023/07/08 01:46:31;;;;;;;12.52;6.72;;;;;;;14.75;67.21;96266.91;2106844;28;20052;-58
2023/07/08 01:47:32;;;;;;;9.85;6.25;;;;;;;14.72;66.86;96261.84;2115435;28;20530;-58
2023/07/08 01:48:36;;;;;;;10.77;6.53;;;;;;;14.63;67.66;96256.31;2107041;28;20047;-58
2023/07/08 01:49:38;;;;;;;12.35;6.45;;;;;;;14.69;67.19;96267.25;2099282;28;20041;-57
2023/07/08 01:50:56;;;;;;;11.52;6.78;;;;;;;14.66;67.06;96267.44;2106270;28;20055;-57
2023/07/08 01:51:57;;;;;;;12.02;6.28;;;;;;;14.66;67.73;96269.22;2107143;28;20032;-58
2023/07/08 01:52:59;;;;;;;13.35;6.40;;;;;;;14.64;67.48;96266.66;2100315;28;20044;-57
2023/07/08 01:54:00;;;;;;;10.30;6.55;;;;;;;14.63;68.04;96261.56;2098137;28;20064;-58
2023/07/08 01:55:01;;;;;;;9.77;6.65;;;;;;;14.62;67.85;96262.47;2106430;28;20048;-58
2023/07/08 01:56:03;;;;;;;11.73;6.45;;;;;;;14.62;67.92;96260.72;2116050;28;20035;-58
2023/07/08 01:57:04;;;;;;;11.68;6.32;;;;;;;14.54;67.72;96249.84;2106005;28;20048;-57
2023/07/08 01:58:06;;;;;;;11.35;6.35;;;;;;;14.53;67.67;96253.41;2098512;28;20404;-57
2023/07/08 01:59:07;;;;;;;11.75;5.72;;;;;;;14.59;68.25;96260.88;2106419;28;20051;-57
2023/07/08 02:00:09;;;;;;;9.25;6.28;;;;;;;14.58;67.72;96261.81;2106604;28;20052;-57
2023/07/08 02:01:14;;;;;;;12.32;6.35;;;;;;;14.55;68.34;96262.00;2107795;28;20059;-58
2023/07/08 02:02:15;;;;;;;11.85;6.78;;;;;;;14.56;68.35;96271.50;2106490;28;20431;-58
2023/07/08 02:03:16;;;;;;;11.07;6.47;;;;;;;14.46;68.48;96257.25;2106033;28;20096;-57
2023/07/08 02:04:17;;;;;;;11.77;6.65;;;;;;;14.54;68.67;96274.22;2106644;28;20051;-58
2023/07/08 02:05:19;;;;;;;11.65;6.70;;;;;;;14.51;68.72;96268.28;2098099;28;20048;-58
2023/07/08 02:06:20;;;;;;;13.13;6.63;;;;;;;14.52;68.83;96270.00;2106365;28;20095;-57
2023/07/08 02:07:21;;;;;;;9.82;6.25;;;;;;;14.53;68.91;96271.69;2115961;28;20055;-57
2023/07/08 02:08:22;;;;;;;11.35;6.50;;;;;;;14.52;69.81;96264.75;2115428;28;20078;-57
2023/07/08 02:09:24;;;;;;;10.70;6.07;;;;;;;14.51;70.22;96263.94;2115393;28;20052;-57
2023/07/08 02:10:25;;;;;;;10.20;6.40;;;;;;;14.51;70.55;96266.53;2106831;28;20044;-57
2023/07/08 02:11:27;;;;;;;11.95;6.63;;;;;;;14.44;70.68;96253.94;2098164;28;20056;-57
2023/07/08 02:12:28;;;;;;;11.02;6.60;;;;;;;14.52;71.06;96262.16;2106930;28;20067;-57
2023/07/08 02:13:29;;;;;;;10.68;6.30;;;;;;;14.51;71.06;96266.53;2115941;28;20047;-57
2023/07/08 02:14:30;;;;;;;10.35;6.13;;;;;;;14.47;71.16;96257.19;2107094;28;20063;-57
2023/07/08 02:15:31;;;;;;;10.15;6.20;;;;;;;14.50;70.66;96261.41;2098653;28;20048;-57
2023/07/08 02:16:32;;;;;;;10.23;5.75;;;;;;;14.49;70.76;96257.94;2106853;28;20044;-58
2023/07/08 02:17:33;;;;;;;11.25;5.90;;;;;;;14.48;70.22;96258.03;2115390;28;20059;-58
2023/07/08 02:18:34;;;;;;;12.27;6.15;;;;;;;14.48;69.86;96263.25;2115375;28;20055;-57
2023/07/08 02:19:35;;;;;;;10.30;5.90;;;;;;;14.48;69.89;96256.25;2114316;28;20129;-57
2023/07/08 02:20:37;;;;;;;9.60;5.75;;;;;;;14.47;69.69;96256.34;2106608;28;20063;-57
2023/07/08 02:21:38;;;;;;;10.38;6.13;;;;;;;14.39;69.22;96238.50;2106343;28;20364;-57
2023/07/08 02:22:39;;;;;;;10.65;6.85;;;;;;;14.46;69.05;96257.25;2115951;28;20061;-57
2023/07/08 02:23:41;;;;;;;10.85;6.28;;;;;;;14.44;69.03;96246.09;2106558;28;20413;-57
2023/07/08 02:24:42;;;;;;;9.52;5.75;;;;;;;14.44;69.05;96248.69;2097441;28;20059;-57
2023/07/08 02:25:53;;;;;;;10.82;6.60;;;;;;;14.44;69.19;96249.53;2097979;28;20499;-57
2023/07/08 02:26:54;;;;;;;11.30;6.28;;;;;;;14.43;69.03;96240.00;2108430;28;20036;-57
2023/07/08 02:27:57;;;;;;;9.30;6.25;;;;;;;14.32;69.01;96230.16;2115203;28;20052;-57
2023/07/08 02:28:58;;;;;;;10.15;6.07;;;;;;;14.42;68.92;96245.31;2106140;28;20087;-57
2023/07/08 02:29:59;;;;;;;11.00;6.13;;;;;;;14.36;68.87;96235.25;2098068;28;20056;-57
2023/07/08 02:31:03;;;;;;;9.63;5.70;;;;;;;14.43;68.76;96252.22;2106229;28;20048;-57
2023/07/08 02:32:05;;;;;;;10.43;6.32;;;;;;;14.41;68.31;96241.03;2115688;28;20043;-57
2023/07/08 02:33:06;;;;;;;12.55;6.53;;;;;;;14.43;68.38;96244.38;2115779;28;20032;-57
2023/07/08 02:34:07;;;;;;;11.90;6.50;;;;;;;14.43;68.21;96245.22;2115829;28;20043;-57
2023/07/08 02:35:08;;;;;;;9.45;6.28;;;;;;;14.43;68.33;96239.16;2115094;28;20051;-58
2023/07/08 02:36:09;;;;;;;9.00;5.90;;;;;;;14.42;68.36;96243.56;2115837;28;20031;-58
2023/07/08 02:37:10;;;;;;;9.93;6.20;;;;;;;14.43;68.51;96245.22;2116015;28;20039;-58
2023/07/08 02:38:12;;;;;;;14.07;6.82;;;;;;;14.43;68.66;96240.00;2115180;28;20078;-58
2023/07/08 02:39:13;;;;;;;10.60;6.68;;;;;;;14.44;68.75;96249.53;2115959;28;20055;-57
2023/07/08 02:40:14;;;;;;;11.13;6.47;;;;;;;14.44;68.36;96244.31;2115034;28;20055;-58
2023/07/08 02:41:16;;;;;;;10.52;5.95;;;;;;;14.44;68.67;96241.69;2115002;28;20059;-58
2023/07/08 02:42:17;;;;;;;11.80;5.93;;;;;;;14.46;68.77;96250.28;2106152;28;20518;-57
2023/07/08 02:43:18;;;;;;;12.80;6.80;;;;;;;14.47;68.81;96245.91;2098445;28;20045;-58
2023/07/08 02:44:19;;;;;;;9.52;6.25;;;;;;;14.45;68.57;96242.53;2106843;28;20044;-57
2023/07/08 02:45:20;;;;;;;10.40;6.05;;;;;;;14.47;68.61;96249.34;2115679;28;20043;-57
2023/07/08 02:46:21;;;;;;;11.07;6.53;;;;;;;14.47;68.60;96245.91;2105845;28;20056;-57
2023/07/08 02:47:22;;;;;;;10.68;6.28;;;;;;;14.49;68.60;96246.66;2105455;28;20511;-58
2023/07/08 02:48:24;;;;;;;9.23;6.38;;;;;;;14.50;68.81;96253.56;2106655;28;20056;-58
2023/07/08 02:49:25;;;;;;;10.02;6.55;;;;;;;14.50;68.63;96249.16;2097608;28;20052;-58
2023/07/08 02:50:26;;;;;;;10.45;6.30;;;;;;;14.50;68.77;96248.31;2105987;28;20064;-58
2023/07/08 02:51:28;;;;;;;10.23;6.25;;;;;;;14.51;69.16;96245.63;2115769;28;20036;-58
2023/07/08 02:52:29;;;;;;;11.50;6.18;;;;;;;14.50;68.82;96245.72;2115558;28;20047;-58
2023/07/08 02:53:30;;;;;;;9.43;6.20;;;;;;;14.48;68.98;96244.97;2115572;28;20043;-58
2023/07/08 02:54:31;;;;;;;10.73;6.28;;;;;;;14.49;68.98;96249.28;2115784;28;20050;-57
2023/07/08 02:55:32;;;;;;;9.20;5.95;;;;;;;14.50;69.05;96250.94;2115643;28;20443;-58
2023/07/08 02:56:33;;;;;;;12.30;5.88;;;;;;;14.50;69.16;96243.09;2107042;28;20091;-57
2023/07/08 02:57:34;;;;;;;10.57;6.57;;;;;;;14.50;69.16;96245.72;2106644;28;20052;-58
2023/07/08 02:58:36;;;;;;;12.38;6.13;;;;;;;14.48;68.98;96242.34;2106735;28;20050;-58
2023/07/08 02:59:37;;;;;;;13.10;6.45;;;;;;;14.49;68.84;96244.88;2106588;28;20098;-57
2023/07/08 03:00:39;;;;;;;13.65;6.50;;;;;;;14.50;68.90;96250.94;2114848;28;20061;-57
2023/07/08 03:01:43;;;;;;;10.15;6.32;;;;;;;14.49;68.70;96251.88;2115701;28;20066;-58
2023/07/08 03:02:45;;;;;;;9.75;6.60;;;;;;;14.40;68.79;96234.13;2115633;28;20039;-58
2023/07/08 03:03:46;;;;;;;11.77;6.85;;;;;;;14.39;68.56;96237.69;2106848;28;20036;-58
2023/07/08 03:04:49;;;;;;;12.25;7.32;;;;;;;14.46;68.64;96260.75;2106668;28;20028;-58
2023/07/08 03:05:55;;;;;;;10.15;6.18;;;;;;;14.50;69.69;96254.41;2114530;28;20475;-58
2023/07/08 03:06:56;;;;;;;10.05;5.75;;;;;;;14.52;70.33;96259.53;2106175;28;20051;-58
2023/07/08 03:07:57;;;;;;;9.32;6.45;;;;;;;14.54;71.10;96262.91;2097937;28;20419;-58
2023/07/08 03:08:58;;;;;;;10.63;6.68;;;;;;;14.56;71.42;96261.91;2105800;28;20048;-58
2023/07/08 03:09:59;;;;;;;11.02;6.63;;;;;;;14.57;72.10;96265.38;2106721;28;20165;-57
2023/07/08 03:11:02;;;;;;;9.60;6.20;;;;;;;14.58;72.48;96263.59;2107357;28;20407;-57
2023/07/08 03:12:04;;;;;;;10.63;5.88;;;;;;;14.60;72.31;96259.97;2105928;28;20055;-57
2023/07/08 03:13:05;;;;;;;12.80;6.82;;;;;;;14.62;72.32;96262.47;2097667;28;20515;-57
2023/07/08 03:14:06;;;;;;;12.25;6.75;;;;;;;14.63;71.54;96265.00;2097959;28;20051;-57
2023/07/08 03:15:08;;;;;;;9.55;6.50;;;;;;;14.58;71.79;96259.19;2097886;28;20051;-57
2023/07/08 03:16:12;;;;;;;9.52;6.32;;;;;;;14.64;72.04;96274.50;2106041;28;20052;-57
2023/07/08 03:17:14;;;;;;;15.30;6.65;;;;;;;14.65;71.65;96273.59;2106786;28;20051;-57
2023/07/08 03:18:15;;;;;;;12.07;7.18;;;;;;;14.66;71.44;96272.66;2106619;28;20056;-57
2023/07/08 03:19:17;;;;;;;11.25;6.20;;;;;;;14.67;71.16;96276.94;2105720;28;20056;-57
2023/07/08 03:20:18;;;;;;;11.43;6.57;;;;;;;14.70;70.99;96276.78;2106001;28;20056;-58
2023/07/08 03:21:19;;;;;;;11.02;6.03;;;;;;;14.61;70.60;96258.19;2106163;28;20075;-58
2023/07/08 03:22:21;;;;;;;11.10;6.45;;;;;;;14.62;71.32;96258.09;2097497;28;20135;-57
2023/07/08 03:23:23;;;;;;;10.60;6.20;;;;;;;14.72;70.67;96272.28;2098045;28;20044;-58
2023/07/08 03:24:24;;;;;;;10.02;6.03;;;;;;;14.73;71.24;96275.78;2097477;28;20052;-57
2023/07/08 03:25:26;;;;;;;10.32;6.55;;;;;;;14.73;71.32;96276.59;2098097;28;20167;-57
2023/07/08 03:26:27;;;;;;;9.95;6.10;;;;;;;14.73;70.88;96276.59;2106331;28;20560;-58
2023/07/08 03:27:29;;;;;;;9.52;6.35;;;;;;;14.74;71.33;96286.13;2105886;28;20055;-57
2023/07/08 03:28:30;;;;;;;10.90;6.25;;;;;;;14.74;71.19;96274.81;2106527;28;20067;-57
2023/07/08 03:29:32;;;;;;;12.00;6.38;;;;;;;14.74;71.43;96265.19;2097341;28;20484;-57
2023/07/08 03:30:33;;;;;;;9.35;6.05;;;;;;;14.71;70.66;96262.78;2105480;28;20063;-56
2023/07/08 03:31:38;;;;;;;11.35;6.65;;;;;;;14.76;70.49;96265.97;2106034;28;20530;-57
2023/07/08 03:32:39;;;;;;;9.25;6.25;;;;;;;14.77;70.44;96265.00;2097795;28;20056;-57
2023/07/08 03:33:40;;;;;;;10.30;7.07;;;;;;;14.78;69.74;96268.47;2105973;28;20048;-57
2023/07/08 03:34:41;;;;;;;11.60;6.20;;;;;;;14.74;69.69;96265.19;2106352;28;20060;-57
2023/07/08 03:35:42;;;;;;;10.43;6.95;;;;;;;14.81;69.52;96270.91;2106429;28;20052;-57
2023/07/08 03:36:50;;;;;;;10.55;5.93;;;;;;;14.84;69.40;96270.72;2097773;28;20044;-57
2023/07/08 03:37:53;;;;;;;9.63;5.95;;;;;;;14.83;69.76;96276.03;2098934;28;20040;-57
2023/07/08 03:38:55;;;;;;;10.82;5.75;;;;;;;14.74;69.47;96252.13;2098045;28;20044;-57
2023/07/08 03:39:56;;;;;;;11.68;6.20;;;;;;;14.85;69.37;96272.41;2106043;28;20040;-57
2023/07/08 03:40:59;;;;;;;10.18;6.28;;;;;;;14.87;69.25;96272.31;2106189;28;20479;-57
2023/07/08 03:42:00;;;;;;;9.57;6.20;;;;;;;14.80;68.95;96268.38;2098011;28;20037;-57
2023/07/08 03:43:02;;;;;;;9.55;6.35;;;;;;;14.89;68.59;96280.91;2105122;28;20044;-57
2023/07/08 03:44:04;;;;;;;10.68;6.60;;;;;;;14.90;68.91;96288.66;2105610;28;20055;-58
2023/07/08 03:45:06;;;;;;;12.55;6.72;;;;;;;14.91;69.27;96290.34;2105623;28;20086;-57
2023/07/08 03:46:10;;;;;;;13.32;6.70;;;;;;;14.92;69.30;96297.25;2105224;28;20048;-58
2023/07/08 03:47:11;;;;;;;11.40;6.90;;;;;;;14.97;70.18;96297.84;2089814;28;20045;-58
2023/07/08 03:48:12;;;;;;;9.82;6.28;;;;;;;14.99;70.20;96302.94;2089506;28;20087;-58
2023/07/08 03:49:15;;;;;;;10.27;6.28;;;;;;;15.03;70.08;96308.84;2097194;28;20052;-58
2023/07/08 03:50:23;;;;;;;11.40;6.05;;;;;;;14.99;68.41;96302.94;2097191;28;20052;-57
2023/07/08 03:51:27;;;;;;;11.30;6.05;;;;;;;15.07;67.96;96311.19;2105362;28;20174;-58
2023/07/08 03:52:28;;;;;;;14.60;6.95;;;;;;;15.04;67.45;96313.97;2105104;28;20526;-57
2023/07/08 03:53:29;;;;;;;12.75;6.38;;;;;;;15.06;67.44;96314.75;2097979;28;20056;-58
2023/07/08 03:54:30;;;;;;;10.30;6.60;;;;;;;15.09;68.11;96314.56;2097691;28;20044;-58
2023/07/08 03:55:33;;;;;;;13.20;7.22;;;;;;;15.11;68.05;96324.94;2097794;28;20049;-58
2023/07/08 03:56:34;;;;;;;10.10;6.53;;;;;;;15.13;68.12;96323.03;2096536;28;20056;-58
2023/07/08 03:57:36;;;;;;;13.25;6.35;;;;;;;15.16;67.52;96328.13;2097449;28;20052;-58
2023/07/08 03:58:37;;;;;;;12.13;6.82;;;;;;;15.06;66.66;96311.28;2097174;28;20063;-58
2023/07/08 03:59:38;;;;;;;11.10;6.47;;;;;;;15.11;66.71;96338.00;2106199;28;20058;-58
2023/07/08 04:00:39;;;;;;;15.90;7.53;;;;;;;15.12;67.21;96350.16;2106303;28;20070;-58
2023/07/08 04:01:41;;;;;;;9.93;6.45;;;;;;;15.14;67.54;96356.97;2097521;28;20048;-58
2023/07/08 04:02:44;;;;;;;10.77;6.57;;;;;;;15.13;68.44;96359.66;2089559;28;20488;-58
2023/07/08 04:03:55;;;;;;;12.68;6.40;;;;;;;15.09;68.29;96364.25;2098123;28;20059;-58
2023/07/08 04:04:56;;;;;;;9.68;6.18;;;;;;;15.05;67.50;96368.00;2105935;28;20052;-58
2023/07/08 04:05:57;;;;;;;9.65;6.78;;;;;;;15.07;67.39;96366.09;2106083;28;20499;-57
2023/07/08 04:06:58;;;;;;;10.73;6.00;;;;;;;15.07;66.62;96363.47;2105853;28;20044;-57
2023/07/08 04:08:00;;;;;;;11.93;6.70;;;;;;;15.08;66.53;96365.19;2105138;28;20055;-58
2023/07/08 04:09:01;;;;;;;8.32;5.60;;;;;;;15.15;65.42;96368.28;2097419;28;20522;-58
2023/07/08 04:10:02;;;;;;;14.38;6.55;;;;;;;15.16;65.36;96365.56;2105816;28;20055;-58
2023/07/08 04:11:03;;;;;;;13.10;6.65;;;;;;;15.21;65.48;96357.47;2106427;28;20082;-58
2023/07/08 04:12:04;;;;;;;10.30;6.57;;;;;;;15.22;64.77;96349.50;2106358;28;20055;-58
2023/07/08 04:13:06;;;;;;;15.43;6.63;;;;;;;15.29;64.27;96354.34;2106042;28;20047;-58
2023/07/08 04:14:09;;;;;;;11.75;6.43;;;;;;;15.35;63.90;96359.25;2106665;28;20048;-57
2023/07/08 04:15:10;;;;;;;9.07;6.32;;;;;;;15.32;64.23;96336.72;2106633;28;20039;-57
2023/07/08 04:16:20;;;;;;;8.65;5.85;;;;;;;15.37;63.56;96339.91;2106501;28;20047;-57
2023/07/08 04:17:23;;;;;;;10.98;6.15;;;;;;;15.36;64.58;96348.66;2097691;28;20389;-59
2023/07/08 04:18:24;;;;;;;12.75;6.20;;;;;;;15.47;63.78;96368.09;2097579;28;20094;-57
2023/07/08 04:19:26;;;;;;;11.27;6.68;;;;;;;15.42;63.98;96357.91;2106637;28;20046;-57
2023/07/08 04:20:27;;;;;;;9.68;6.45;;;;;;;15.55;63.91;96368.47;2106179;28;20542;-57
2023/07/08 04:21:30;;;;;;;8.98;6.00;;;;;;;15.63;63.56;96368.84;2106569;28;20059;-57
2023/07/08 04:22:31;;;;;;;11.30;6.22;;;;;;;15.71;62.93;96360.56;2105995;28;20052;-57
2023/07/08 04:23:32;;;;;;;8.98;5.70;;;;;;;15.77;62.09;96354.94;2106648;28;20048;-57
2023/07/08 04:24:33;;;;;;;9.88;6.00;;;;;;;15.87;61.83;96350.81;2106738;28;20372;-58
2023/07/08 04:25:34;;;;;;;11.98;6.07;;;;;;;15.86;62.00;96338.66;2106205;28;20055;-57
2023/07/08 04:26:35;;;;;;;10.02;5.60;;;;;;;15.96;62.07;96344.16;2105476;28;20054;-57
2023/07/08 04:27:37;;;;;;;10.27;5.53;;;;;;;15.96;62.91;96349.38;2106095;28;20067;-58
2023/07/08 04:28:38;;;;;;;9.65;5.65;;;;;;;16.01;62.93;96340.34;2106403;28;20066;-58
2023/07/08 04:29:39;;;;;;;9.88;5.95;;;;;;;16.09;62.84;96339.81;2106591;28;20154;-58
2023/07/08 04:30:41;;;;;;;12.65;5.95;;;;;;;16.13;62.65;96357.03;2106297;28;20070;-57
2023/07/08 04:31:42;;;;;;;10.88;6.03;;;;;;;16.18;62.71;96354.97;2106547;28;20052;-59
2023/07/08 04:32:43;;;;;;;9.65;5.53;;;;;;;16.24;62.29;96354.56;2106474;28;20052;-59
2023/07/08 04:33:44;;;;;;;14.25;6.45;;;;;;;16.21;61.93;96338.22;2106771;28;20044;-58
2023/07/08 04:34:45;;;;;;;10.98;6.57;;;;;;;16.35;62.27;96353.03;2106401;28;20032;-58
2023/07/08 04:35:46;;;;;;;11.80;5.35;;;;;;;16.42;61.53;96356.94;2106400;28;20380;-57
2023/07/08 04:36:47;;;;;;;13.30;6.25;;;;;;;16.47;60.21;96350.47;2106101;28;20040;-57
2023/07/08 04:37:48;;;;;;;9.38;5.47;;;;;;;16.50;60.39;96350.25;2105258;28;20063;-58
2023/07/08 04:38:49;;;;;;;11.32;6.22;;;;;;;16.58;61.13;96341.91;2106676;28;20399;-58
2023/07/08 04:39:50;;;;;;;8.77;5.38;;;;;;;16.63;61.02;96345.06;2105308;28;20059;-58
2023/07/08 04:40:52;;;;;;;8.65;5.68;;;;;;;16.64;60.07;96343.28;2105899;28;20048;-58
2023/07/08 04:41:53;;;;;;;7.47;5.47;;;;;;;16.73;60.64;96340.03;2106275;28;20468;-58
2023/07/08 04:42:54;;;;;;;9.52;5.80;;;;;;;16.79;59.21;96352.78;2105160;28;20055;-58
2023/07/08 04:43:57;;;;;;;9.38;5.80;;;;;;;16.84;60.14;96337.59;2106322;28;20051;-58
2023/07/08 04:44:58;;;;;;;8.90;5.90;;;;;;;16.92;58.66;96342.31;2105827;28;20052;-58
2023/07/08 04:45:59;;;;;;;10.80;5.88;;;;;;;16.91;59.19;96327.53;2106385;28;20040;-58
2023/07/08 04:47:00;;;;;;;9.32;6.28;;;;;;;16.81;59.67;96327.28;2105840;28;20058;-58
2023/07/08 04:48:08;;;;;;;10.75;6.18;;;;;;;16.93;58.36;96334.34;2105221;28;20048;-58
2023/07/08 04:49:09;;;;;;;9.73;5.82;;;;;;;16.88;57.91;96323.31;2106762;28;20036;-58
2023/07/08 04:50:11;;;;;;;10.15;6.30;;;;;;;16.94;57.37;96311.56;2106712;28;20032;-58
2023/07/08 04:51:12;;;;;;;11.10;6.65;;;;;;;17.06;57.44;96328.28;2106341;28;20055;-58